createdAt,value
2022-08-14T00:01:54.970Z,15.40
2022-08-14T00:06:25.356Z,15.40
2022-08-14T00:10:52.071Z,15.40
2022-08-14T00:15:25.795Z,15.50
2022-08-14T00:19:46.948Z,15.40
2022-08-14T00:24:06.586Z,15.50
2022-08-14T00:28:29.160Z,15.50
2022-08-14T00:32:56.182Z,15.40
2022-08-14T00:37:13.906Z,15.50
2022-08-14T00:41:33.324Z,15.50
2022-08-14T00:45:52.592Z,15.40
2022-08-14T00:50:17.797Z,15.40
2022-08-14T00:54:37.480Z,15.20
2022-08-14T00:58:58.618Z,15.20
2022-08-14T01:03:17.260Z,15.20
2022-08-14T01:07:47.341Z,15.10
2022-08-14T01:12:12.241Z,15.10
2022-08-14T01:16:31.495Z,15.30
2022-08-14T01:21:04.287Z,15.40
2022-08-14T01:25:22.703Z,15.40
2022-08-14T01:29:58.799Z,15.50
2022-08-14T01:35:19.760Z,15.70
2022-08-14T01:38:58.017Z,15.70
2022-08-14T01:43:18.724Z,15.80
2022-08-14T01:47:39.823Z,15.90
2022-08-14T01:51:57.071Z,15.90
2022-08-14T01:56:21.055Z,15.90
2022-08-14T02:00:39.496Z,15.90
2022-08-14T02:04:57.727Z,15.90
2022-08-14T02:09:19.309Z,15.80
2022-08-14T02:13:43.110Z,15.60
2022-08-14T02:18:02.222Z,15.60
2022-08-14T02:22:32.642Z,15.50
2022-08-14T02:28:19.282Z,15.40
2022-08-14T02:31:42.412Z,15.40
2022-08-14T02:36:44.146Z,15.30
2022-08-14T02:40:40.814Z,15.30
2022-08-14T02:44:59.455Z,15.20
2022-08-14T02:49:17.945Z,15.20
2022-08-14T02:53:45.689Z,15.10
2022-08-14T02:58:05.972Z,15.10
2022-08-14T03:02:49.058Z,15.00
2022-08-14T03:07:07.297Z,15.00
2022-08-14T03:11:26.357Z,14.80
2022-08-14T03:15:55.707Z,14.80
2022-08-14T03:20:14.330Z,14.80
2022-08-14T03:24:31.959Z,14.80
2022-08-14T03:28:52.185Z,14.80
2022-08-14T03:33:12.299Z,14.70
2022-08-14T03:39:10.824Z,14.70
2022-08-14T03:42:06.789Z,14.60
2022-08-14T03:46:54.763Z,14.60
2022-08-14T03:51:13.980Z,14.40
2022-08-14T03:55:31.972Z,14.40
2022-08-14T03:59:49.157Z,14.30
2022-08-14T04:04:07.951Z,14.30
2022-08-14T04:08:30.550Z,14.30
2022-08-14T04:12:51.774Z,14.30
2022-08-14T04:17:10.128Z,14.40
2022-08-14T04:21:29.431Z,14.40
2022-08-14T04:25:48.081Z,14.40
2022-08-14T04:30:06.497Z,14.40
2022-08-14T04:34:27.224Z,14.50
2022-08-14T04:39:04.037Z,14.50
2022-08-14T04:43:39.326Z,14.60
2022-08-14T04:48:36.637Z,14.60
2022-08-14T04:52:53.813Z,14.60
2022-08-14T04:57:14.918Z,14.70
2022-08-14T05:01:33.821Z,14.70
2022-08-14T05:06:00.295Z,14.80
2022-08-14T05:10:22.094Z,14.90
2022-08-14T05:14:46.196Z,15.00
2022-08-14T05:19:18.018Z,15.00
2022-08-14T05:23:44.771Z,15.20
2022-08-14T05:28:16.235Z,15.30
2022-08-14T05:32:34.366Z,15.30
2022-08-14T05:37:02.093Z,15.50
2022-08-14T05:41:20.402Z,15.60
2022-08-14T05:45:39.966Z,15.70
2022-08-14T05:49:58.403Z,15.90
2022-08-14T05:54:26.620Z,15.90
2022-08-14T05:58:45.582Z,16.10
2022-08-14T06:03:06.988Z,16.20
2022-08-14T06:07:24.334Z,16.30
2022-08-14T06:11:41.848Z,16.40
2022-08-14T06:16:00.644Z,16.60
2022-08-14T06:20:19.041Z,16.80
2022-08-14T06:24:39.287Z,17.00
2022-08-14T06:29:02.183Z,17.30
2022-08-14T06:33:20.455Z,17.40
2022-08-14T06:37:59.089Z,17.80
2022-08-14T06:42:31.361Z,18.10
2022-08-14T06:46:50.349Z,18.30
2022-08-14T06:51:07.560Z,18.50
2022-08-14T06:55:28.156Z,18.60
2022-08-14T06:59:46.502Z,18.90
2022-08-14T07:04:26.798Z,19.20
2022-08-14T07:08:44.934Z,19.30
2022-08-14T07:13:08.812Z,19.50
2022-08-14T07:17:26.922Z,19.70
2022-08-14T07:21:44.878Z,20.00
2022-08-14T07:26:04.211Z,20.30
2022-08-14T07:30:34.603Z,20.60
2022-08-14T07:34:52.647Z,20.70
2022-08-14T07:39:12.416Z,20.90
2022-08-14T07:43:30.636Z,21.30
2022-08-14T07:47:47.882Z,21.80
2022-08-14T07:52:05.404Z,22.20
2022-08-14T07:56:43.981Z,22.80
2022-08-14T08:01:02.821Z,23.60
2022-08-14T08:05:24.304Z,24.20
2022-08-14T08:09:47.984Z,24.80
2022-08-14T08:14:17.252Z,25.70
2022-08-14T08:18:36.056Z,27.10
2022-08-14T08:23:00.481Z,27.10
2022-08-14T08:27:23.790Z,27.20
2022-08-14T08:31:51.114Z,27.80
2022-08-14T08:36:18.817Z,28.50
2022-08-14T08:40:57.228Z,28.50
2022-08-14T08:45:18.769Z,28.40
2022-08-14T08:49:43.072Z,28.80
2022-08-14T08:54:14.563Z,28.80
2022-08-14T08:58:38.056Z,29.70
2022-08-14T09:03:06.864Z,29.60
2022-08-14T09:07:28.104Z,29.70
2022-08-14T09:11:45.912Z,29.80
2022-08-14T09:16:18.538Z,30.50
2022-08-14T09:20:39.703Z,30.60
2022-08-14T09:25:00.541Z,30.00
2022-08-14T09:29:22.786Z,31.20
2022-08-14T09:33:56.456Z,31.90
2022-08-14T09:38:42.348Z,31.70
2022-08-14T09:43:25.077Z,31.00
2022-08-14T09:47:55.408Z,31.10
2022-08-14T09:52:33.594Z,33.20
2022-08-14T09:56:57.064Z,33.40
2022-08-14T10:01:18.675Z,32.60
2022-08-14T10:05:39.397Z,32.60
2022-08-14T10:09:59.792Z,33.00
2022-08-14T10:14:35.269Z,31.90
2022-08-14T10:19:09.357Z,32.40
2022-08-14T10:23:39.130Z,33.40
2022-08-14T10:27:58.857Z,34.30
2022-08-14T10:32:18.154Z,35.00
2022-08-14T10:37:02.194Z,33.50
2022-08-14T10:41:20.107Z,32.90
2022-08-14T10:45:42.109Z,33.90
2022-08-14T10:50:12.043Z,34.50
2022-08-14T10:54:42.019Z,34.90
2022-08-14T10:59:08.120Z,35.10
2022-08-14T11:03:35.688Z,34.50
2022-08-14T11:08:09.025Z,32.60
2022-08-14T11:12:47.809Z,34.50
2022-08-14T11:17:05.706Z,34.40
2022-08-14T11:21:30.331Z,34.50
2022-08-14T11:25:53.257Z,34.40
2022-08-14T11:30:50.743Z,34.40
2022-08-14T11:34:53.393Z,35.00
2022-08-14T11:39:19.076Z,35.30
2022-08-14T11:43:55.876Z,33.10
2022-08-14T11:49:03.993Z,34.30
2022-08-14T11:52:55.163Z,34.90
2022-08-14T11:57:19.986Z,32.80
2022-08-14T12:01:41.092Z,33.80
2022-08-14T12:06:06.922Z,35.20
2022-08-14T12:10:44.930Z,35.00
2022-08-14T12:15:05.413Z,35.70
2022-08-14T12:19:25.412Z,36.40
2022-08-14T12:23:43.175Z,36.60
2022-08-14T12:28:05.558Z,35.40
2022-08-14T12:32:22.966Z,34.80
2022-08-14T12:36:40.180Z,34.50
2022-08-14T12:41:02.235Z,35.60
2022-08-14T12:45:33.845Z,35.70
2022-08-14T12:49:54.193Z,35.70
2022-08-14T12:54:28.003Z,35.40
2022-08-14T12:58:57.555Z,34.60
2022-08-14T13:03:28.337Z,35.80
2022-08-14T13:07:45.698Z,33.60
2022-08-14T13:12:32.420Z,31.60
2022-08-14T13:16:43.783Z,34.70
2022-08-14T13:21:02.763Z,36.80
2022-08-14T13:25:24.432Z,37.10
2022-08-14T13:29:44.681Z,36.80
2022-08-14T13:34:05.763Z,36.10
2022-08-14T13:38:25.434Z,37.50
2022-08-14T13:42:48.332Z,38.60
2022-08-14T13:47:12.105Z,38.20
2022-08-14T13:51:36.278Z,36.20
2022-08-14T13:55:56.552Z,33.60
2022-08-14T14:00:18.008Z,33.00
2022-08-14T14:04:42.431Z,32.50
2022-08-14T14:09:06.027Z,33.80
2022-08-14T14:13:30.573Z,34.80
2022-08-14T14:17:49.806Z,35.20
2022-08-14T14:22:07.795Z,34.50
2022-08-14T14:26:28.383Z,32.00
2022-08-14T14:30:53.464Z,31.50
2022-08-14T14:35:14.489Z,31.70
2022-08-14T14:40:50.383Z,34.30
2022-08-14T14:44:15.867Z,34.00
2022-08-14T14:48:33.543Z,34.20
2022-08-14T14:52:51.288Z,33.30
2022-08-14T14:57:13.865Z,32.80
2022-08-14T15:01:38.278Z,33.60
2022-08-14T15:05:57.437Z,33.40
2022-08-14T15:10:28.279Z,33.60
2022-08-14T15:14:56.202Z,32.90
2022-08-14T15:19:15.018Z,31.80
2022-08-14T15:23:44.008Z,31.20
2022-08-14T15:28:02.968Z,30.90
2022-08-14T15:32:23.427Z,30.70
2022-08-14T15:36:41.913Z,30.60
2022-08-14T15:41:02.201Z,30.20
2022-08-14T15:45:25.624Z,30.00
2022-08-14T15:49:44.430Z,30.10
2022-08-14T15:54:03.080Z,30.70
2022-08-14T15:58:28.491Z,30.80
2022-08-14T16:02:45.926Z,30.10
2022-08-14T16:07:03.290Z,29.70
2022-08-14T16:11:24.858Z,29.60
2022-08-14T16:15:45.367Z,29.60
2022-08-14T16:20:10.927Z,29.50
2022-08-14T16:24:33.153Z,29.60
2022-08-14T16:28:52.845Z,29.60
2022-08-14T16:33:11.385Z,29.80
2022-08-14T16:37:48.543Z,29.80
2022-08-14T16:42:38.272Z,29.50
2022-08-14T16:46:47.565Z,29.50
2022-08-14T16:51:06.914Z,29.10
2022-08-14T16:55:30.345Z,29.00
2022-08-14T16:59:52.727Z,28.90
2022-08-14T17:04:25.023Z,28.80
2022-08-14T17:08:46.935Z,28.40
2022-08-14T17:13:47.582Z,28.20
2022-08-14T17:17:59.844Z,28.10
2022-08-14T17:22:17.252Z,27.90
2022-08-14T17:26:54.997Z,27.70
2022-08-14T17:31:13.091Z,27.50
2022-08-14T17:35:58.837Z,27.40
2022-08-14T17:40:19.538Z,27.20
2022-08-14T17:44:45.385Z,27.10
2022-08-14T17:49:18.037Z,26.90
2022-08-14T17:53:36.664Z,26.70
2022-08-14T17:58:21.161Z,26.50
2022-08-14T18:02:51.039Z,26.40
2022-08-14T18:07:49.335Z,26.20
2022-08-14T18:11:53.143Z,26.00
2022-08-14T18:16:20.364Z,25.90
2022-08-14T18:21:39.921Z,25.70
2022-08-14T18:25:22.698Z,25.50
2022-08-14T18:29:55.228Z,25.30
2022-08-14T18:34:31.124Z,25.10
2022-08-14T18:39:28.239Z,25.00
2022-08-14T18:43:59.689Z,24.70
2022-08-14T18:48:19.859Z,24.50
2022-08-14T18:52:37.481Z,24.30
2022-08-14T18:57:08.975Z,23.90
2022-08-14T19:01:29.866Z,23.60
2022-08-14T19:05:48.326Z,23.30
2022-08-14T19:10:08.847Z,23.10
2022-08-14T19:14:46.953Z,22.80
2022-08-14T19:19:07.058Z,22.60
2022-08-14T19:23:40.650Z,22.40
2022-08-14T19:28:31.066Z,22.20
2022-08-14T19:32:56.031Z,22.10
2022-08-14T19:37:54.077Z,22.00
2022-08-14T19:42:14.303Z,21.90
2022-08-14T19:47:00.052Z,21.80
2022-08-14T19:51:22.270Z,21.70
2022-08-14T19:55:45.879Z,21.60
2022-08-14T20:00:29.210Z,21.50
2022-08-14T20:04:57.880Z,21.50
2022-08-14T20:11:11.171Z,21.40
2022-08-14T20:13:57.857Z,21.30
2022-08-14T20:18:48.842Z,21.20
2022-08-14T20:23:11.867Z,21.00
2022-08-14T20:27:33.615Z,21.00
2022-08-14T20:31:53.607Z,20.90
2022-08-14T20:36:15.321Z,20.80
2022-08-14T20:40:50.263Z,20.60
2022-08-14T20:45:24.106Z,20.70
2022-08-14T20:49:41.960Z,20.60
2022-08-14T20:54:05.343Z,20.50
2022-08-14T20:58:43.943Z,20.40
2022-08-14T21:03:28.957Z,20.30
2022-08-14T21:07:51.215Z,20.10
2022-08-14T21:12:33.885Z,20.00
2022-08-14T21:16:58.207Z,19.80
2022-08-14T21:21:22.047Z,19.80
2022-08-14T21:25:40.344Z,19.60
2022-08-14T21:29:59.742Z,19.70
2022-08-14T21:34:27.479Z,19.80
2022-08-14T21:38:49.712Z,19.60
2022-08-14T21:43:17.425Z,19.60
2022-08-14T21:47:36.357Z,19.60
2022-08-14T21:52:49.674Z,19.70
2022-08-14T21:56:57.604Z,19.70
2022-08-14T22:01:15.126Z,19.60
2022-08-14T22:05:32.709Z,19.60
2022-08-14T22:09:55.040Z,19.50
2022-08-14T22:14:25.414Z,19.30
2022-08-14T22:18:46.485Z,19.10
2022-08-14T22:23:08.526Z,18.90
2022-08-14T22:27:25.694Z,18.90
2022-08-14T22:31:44.013Z,18.80
2022-08-14T22:36:26.257Z,18.60
2022-08-14T22:41:03.508Z,18.60
2022-08-14T22:45:23.809Z,18.40
2022-08-14T22:50:30.033Z,18.50
2022-08-14T22:54:52.502Z,18.50
2022-08-14T22:59:02.230Z,18.60
2022-08-14T23:03:19.716Z,18.60
2022-08-14T23:08:56.659Z,18.60
2022-08-14T23:12:27.642Z,18.50
2022-08-14T23:16:48.416Z,18.50
2022-08-14T23:21:14.266Z,18.50
2022-08-14T23:25:58.767Z,18.50
2022-08-14T23:30:34.261Z,18.30
2022-08-14T23:34:54.249Z,18.30
2022-08-14T23:39:19.346Z,18.30
2022-08-14T23:43:42.395Z,18.10
2022-08-14T23:48:01.090Z,18.00
2022-08-14T23:52:51.309Z,17.90
2022-08-14T23:56:59.943Z,17.90
